createdAt,value
2022-09-16T00:00:53.433Z,100164.00
2022-09-16T00:05:53.358Z,100164.00
2022-09-16T00:10:53.319Z,100162.00
2022-09-16T00:15:56.368Z,100154.00
2022-09-16T00:20:56.274Z,100148.00
2022-09-16T00:25:56.277Z,100144.00
2022-09-16T00:30:56.271Z,100144.00
2022-09-16T00:35:56.272Z,100146.00
2022-09-16T00:40:56.344Z,100154.00
2022-09-16T00:45:56.290Z,100158.00
2022-09-16T00:50:56.306Z,100162.00
2022-09-16T00:55:56.330Z,100158.00
2022-09-16T01:00:56.404Z,100162.00
2022-09-16T01:05:56.308Z,100160.00
2022-09-16T01:10:56.725Z,100162.00
2022-09-16T01:15:56.335Z,100160.00
2022-09-16T01:20:56.798Z,100164.00
2022-09-16T01:25:56.326Z,100160.00
2022-09-16T01:30:56.462Z,100160.00
2022-09-16T01:35:56.326Z,100158.00
2022-09-16T01:40:56.314Z,100156.00
2022-09-16T01:45:56.376Z,100156.00
2022-09-16T01:50:56.343Z,100158.00
2022-09-16T01:55:56.327Z,100160.00
2022-09-16T02:00:56.375Z,100158.00
2022-09-16T02:05:56.376Z,100154.00
2022-09-16T02:10:59.582Z,100154.00
2022-09-16T02:15:59.374Z,100154.00
2022-09-16T02:20:59.332Z,100148.00
2022-09-16T02:25:59.354Z,100148.00
2022-09-16T02:30:59.527Z,100148.00
2022-09-16T02:35:59.364Z,100142.00
2022-09-16T02:40:59.329Z,100140.00
2022-09-16T02:45:59.829Z,100144.00
2022-09-16T02:50:59.455Z,100144.00
2022-09-16T02:55:59.348Z,100142.00
2022-09-16T03:00:59.368Z,100142.00
2022-09-16T03:05:59.367Z,100138.00
2022-09-16T03:10:59.443Z,100133.00
2022-09-16T03:15:59.872Z,100129.00
2022-09-16T03:20:59.451Z,100125.00
2022-09-16T03:25:59.462Z,100121.00
2022-09-16T03:30:59.440Z,100123.00
2022-09-16T03:35:59.488Z,100127.00
2022-09-16T03:40:59.403Z,100127.00
2022-09-16T03:45:59.424Z,100129.00
2022-09-16T03:50:59.480Z,100129.00
2022-09-16T03:55:59.418Z,100125.00
2022-09-16T04:00:59.417Z,100119.00
2022-09-16T04:05:59.415Z,100119.00
2022-09-16T04:10:59.415Z,100113.00
2022-09-16T04:15:59.437Z,100109.00
2022-09-16T04:20:59.467Z,100105.00
2022-09-16T04:25:59.451Z,100103.00
2022-09-16T04:30:59.735Z,100103.00
2022-09-16T04:35:59.419Z,100101.00
2022-09-16T04:41:00.376Z,100109.00
2022-09-16T04:46:00.487Z,100111.00
2022-09-16T04:51:00.482Z,100111.00
2022-09-16T04:56:00.459Z,100119.00
2022-09-16T05:01:00.454Z,100127.00
2022-09-16T05:06:00.512Z,100129.00
2022-09-16T05:11:00.524Z,100125.00
2022-09-16T05:16:00.632Z,100123.00
2022-09-16T05:21:00.521Z,100117.00
2022-09-16T05:26:00.525Z,100109.00
2022-09-16T05:31:00.495Z,100107.00
2022-09-16T05:36:00.462Z,100111.00
2022-09-16T05:41:00.654Z,100111.00
2022-09-16T05:46:00.923Z,100115.00
2022-09-16T05:51:01.052Z,100121.00
2022-09-16T05:56:00.473Z,100121.00
2022-09-16T06:01:00.507Z,100123.00
2022-09-16T06:06:00.595Z,100127.00
2022-09-16T06:11:00.536Z,100127.00
2022-09-16T06:16:00.618Z,100127.00
2022-09-16T06:21:00.504Z,100129.00
2022-09-16T06:26:01.007Z,100129.00
2022-09-16T06:31:01.238Z,100131.00
2022-09-16T06:36:01.493Z,100135.00
2022-09-16T06:41:01.530Z,100135.00
2022-09-16T06:46:01.756Z,100135.00
2022-09-16T06:51:01.642Z,100137.00
2022-09-16T06:56:01.901Z,100133.00
2022-09-16T07:01:01.660Z,100135.00
2022-09-16T07:06:01.697Z,100131.00
2022-09-16T07:11:01.586Z,100135.00
2022-09-16T07:16:12.748Z,100135.00
2022-09-16T07:21:03.608Z,100138.00
2022-09-16T07:26:03.602Z,100138.00
2022-09-16T07:31:03.665Z,100138.00
2022-09-16T07:36:06.666Z,100142.00
2022-09-16T07:41:06.615Z,100148.00
2022-09-16T07:46:06.651Z,100154.00
2022-09-16T07:51:06.573Z,100160.00
2022-09-16T07:56:06.680Z,100162.00
2022-09-16T08:01:07.548Z,100166.00
2022-09-16T08:06:07.610Z,100170.00
2022-09-16T08:11:07.747Z,100166.00
2022-09-16T08:16:07.771Z,100170.00
2022-09-16T08:21:07.666Z,100170.00
2022-09-16T08:26:09.267Z,100166.00
2022-09-16T08:31:09.638Z,100162.00
2022-09-16T08:36:09.662Z,100160.00
2022-09-16T08:41:09.752Z,100160.00
2022-09-16T08:46:10.075Z,100158.00
2022-09-16T08:51:09.668Z,100158.00
2022-09-16T08:56:09.654Z,100156.00
2022-09-16T09:01:09.795Z,100158.00
2022-09-16T09:06:09.620Z,100156.00
2022-09-16T09:11:09.746Z,100152.00
2022-09-16T09:16:09.741Z,100156.00
2022-09-16T09:21:12.750Z,100156.00
2022-09-16T09:26:13.312Z,100164.00
2022-09-16T09:31:13.802Z,100158.00
2022-09-16T09:36:13.677Z,100148.00
2022-09-16T09:41:13.747Z,100142.00
2022-09-16T09:46:13.717Z,100138.00
2022-09-16T09:51:13.667Z,100137.00
2022-09-16T09:56:13.912Z,100129.00
2022-09-16T10:01:15.588Z,100123.00
2022-09-16T10:06:15.729Z,100119.00
2022-09-16T10:11:18.737Z,100115.00
2022-09-16T10:16:20.250Z,100109.00
2022-09-16T10:21:19.737Z,100105.00
2022-09-16T10:26:20.115Z,100111.00
2022-09-16T10:31:19.848Z,100109.00
2022-09-16T10:36:19.700Z,100107.00
2022-09-16T10:41:19.716Z,100117.00
2022-09-16T10:46:19.909Z,100119.00
2022-09-16T10:51:19.727Z,100123.00
2022-09-16T10:56:19.947Z,100117.00
2022-09-16T11:01:20.468Z,100115.00
2022-09-16T11:06:20.768Z,100117.00
2022-09-16T11:11:20.930Z,100117.00
2022-09-16T11:16:20.851Z,100123.00
2022-09-16T11:21:20.739Z,100117.00
2022-09-16T11:26:20.852Z,100117.00
2022-09-16T11:31:21.201Z,100117.00
2022-09-16T11:36:20.776Z,100119.00
2022-09-16T11:41:20.827Z,100119.00
2022-09-16T11:46:22.733Z,100119.00
2022-09-16T11:51:23.409Z,100117.00
2022-09-16T11:56:23.838Z,100123.00
2022-09-16T12:01:23.833Z,100125.00
2022-09-16T12:06:23.841Z,100133.00
2022-09-16T12:11:23.801Z,100135.00
2022-09-16T12:16:28.115Z,100142.00
2022-09-16T12:21:27.021Z,100144.00
2022-09-16T12:26:26.832Z,100146.00
2022-09-16T12:31:26.864Z,100150.00
2022-09-16T12:36:27.020Z,100152.00
2022-09-16T12:41:26.835Z,100156.00
2022-09-16T12:46:27.912Z,100154.00
2022-09-16T12:51:27.867Z,100154.00
2022-09-16T12:56:27.833Z,100152.00
2022-09-16T13:01:28.073Z,100150.00
2022-09-16T13:06:27.911Z,100146.00
2022-09-16T13:12:16.495Z,100142.00
2022-09-16T13:16:29.888Z,100144.00
2022-09-16T13:21:30.440Z,100148.00
2022-09-16T13:26:29.875Z,100152.00
2022-09-16T13:31:32.108Z,100152.00
2022-09-16T13:36:31.854Z,100158.00
2022-09-16T13:41:32.250Z,100168.00
2022-09-16T13:46:32.078Z,100170.00
2022-09-16T13:51:36.061Z,100172.00
2022-09-16T13:56:33.952Z,100170.00
2022-09-16T14:01:55.509Z,100160.00
2022-09-16T14:06:35.882Z,100158.00
2022-09-16T14:11:36.020Z,100158.00
2022-09-16T14:16:35.882Z,100154.00
2022-09-16T14:21:37.767Z,100152.00
2022-09-16T14:26:37.953Z,100146.00
2022-09-16T14:31:39.076Z,100148.00
2022-09-16T14:36:39.971Z,100146.00
2022-09-16T14:41:39.870Z,100148.00
2022-09-16T14:46:39.907Z,100146.00
2022-09-16T14:51:39.926Z,100142.00
2022-09-16T14:56:40.008Z,100146.00
2022-09-16T15:01:41.843Z,100148.00
2022-09-16T15:06:41.944Z,100144.00
2022-09-16T15:11:48.128Z,100138.00
2022-09-16T15:16:44.930Z,100138.00
2022-09-16T15:21:45.031Z,100133.00
2022-09-16T15:26:48.087Z,100133.00
2022-09-16T15:31:47.934Z,100129.00
2022-09-16T15:36:48.459Z,100127.00
2022-09-16T15:41:48.040Z,100123.00
2022-09-16T15:46:48.009Z,100119.00
2022-09-16T15:51:47.974Z,100121.00
2022-09-16T15:56:47.951Z,100127.00
2022-09-16T16:01:52.557Z,100133.00
2022-09-16T16:06:50.986Z,100131.00
2022-09-16T16:11:52.346Z,100133.00
2022-09-16T16:17:11.682Z,100129.00
2022-09-16T16:21:56.894Z,100131.00
2022-09-16T16:26:57.087Z,100131.00
2022-09-16T16:31:57.020Z,100135.00
2022-09-16T16:36:57.015Z,100146.00
2022-09-16T16:41:59.173Z,100152.00
2022-09-16T16:46:59.370Z,100158.00
2022-09-16T16:51:58.993Z,100160.00
2022-09-16T16:56:59.013Z,100166.00
2022-09-16T17:02:00.699Z,100162.00
2022-09-16T17:07:25.095Z,100164.00
2022-09-16T17:12:03.825Z,100168.00
2022-09-16T17:17:04.704Z,100170.00
2022-09-16T17:22:05.586Z,100174.00
2022-09-16T17:27:05.558Z,100180.00
2022-09-16T17:32:06.353Z,100187.00
2022-09-16T17:37:07.933Z,100191.00
2022-09-16T17:42:08.137Z,100197.00
2022-09-16T17:47:08.169Z,100197.00
2022-09-16T17:52:08.139Z,100203.00
2022-09-16T17:57:08.046Z,100207.00
2022-09-16T18:02:08.673Z,100211.00
2022-09-16T18:07:10.267Z,100213.00
2022-09-16T18:12:10.164Z,100217.00
2022-09-16T18:17:10.272Z,100217.00
2022-09-16T18:22:10.088Z,100217.00
2022-09-16T18:27:10.061Z,100217.00
2022-09-16T18:32:10.084Z,100221.00
2022-09-16T18:37:10.500Z,100227.00
2022-09-16T18:42:10.185Z,100229.00
2022-09-16T18:47:10.094Z,100229.00
2022-09-16T18:52:10.149Z,100231.00
2022-09-16T18:57:10.195Z,100231.00
2022-09-16T19:02:11.769Z,100234.00
2022-09-16T19:07:12.188Z,100232.00
2022-09-16T19:12:12.154Z,100238.00
2022-09-16T19:17:12.513Z,100242.00
2022-09-16T19:22:12.104Z,100248.00
2022-09-16T19:27:12.079Z,100246.00
2022-09-16T19:32:12.165Z,100250.00
2022-09-16T19:37:12.168Z,100248.00
2022-09-16T19:42:13.346Z,100246.00
2022-09-16T19:47:13.143Z,100248.00
2022-09-16T19:52:13.138Z,100250.00
2022-09-16T19:57:13.178Z,100250.00
2022-09-16T20:02:13.248Z,100250.00
2022-09-16T20:07:15.053Z,100260.00
2022-09-16T20:12:15.656Z,100262.00
2022-09-16T20:17:15.177Z,100264.00
2022-09-16T20:22:15.151Z,100268.00
2022-09-16T20:27:15.755Z,100276.00
2022-09-16T20:32:16.163Z,100292.00
2022-09-16T20:37:16.188Z,100296.00
2022-09-16T20:42:18.781Z,100296.00
2022-09-16T20:47:19.189Z,100304.00
2022-09-16T20:52:19.321Z,100308.00
2022-09-16T20:57:20.219Z,100313.00
2022-09-16T21:02:20.315Z,100317.00
2022-09-16T21:07:20.893Z,100317.00
2022-09-16T21:12:21.768Z,100319.00
2022-09-16T21:17:22.199Z,100321.00
2022-09-16T21:22:22.397Z,100323.00
2022-09-16T21:27:22.217Z,100321.00
2022-09-16T21:32:22.279Z,100317.00
2022-09-16T21:37:22.264Z,100317.00
2022-09-16T21:42:22.310Z,100323.00
2022-09-16T21:47:22.214Z,100321.00
2022-09-16T21:52:22.956Z,100323.00
2022-09-16T21:57:23.251Z,100327.00
2022-09-16T22:02:28.988Z,100329.00
2022-09-16T22:07:27.222Z,100337.00
2022-09-16T22:12:27.350Z,100337.00
2022-09-16T22:17:28.317Z,100333.00
2022-09-16T22:22:28.252Z,100339.00
2022-09-16T22:27:28.512Z,100335.00
2022-09-16T22:32:28.360Z,100337.00
2022-09-16T22:37:28.228Z,100341.00
2022-09-16T22:42:28.326Z,100341.00
2022-09-16T22:47:28.317Z,100339.00
2022-09-16T22:52:28.549Z,100341.00
2022-09-16T22:57:28.265Z,100341.00
2022-09-16T23:02:28.275Z,100339.00
2022-09-16T23:07:30.197Z,100341.00
2022-09-16T23:12:30.538Z,100343.00
2022-09-16T23:17:30.316Z,100337.00
2022-09-16T23:22:30.476Z,100337.00
2022-09-16T23:27:30.566Z,100337.00
2022-09-16T23:32:30.543Z,100341.00
2022-09-16T23:37:30.515Z,100339.00
2022-09-16T23:42:30.367Z,100339.00
2022-09-16T23:47:33.322Z,100341.00
2022-09-16T23:52:33.385Z,100343.00
2022-09-16T23:57:33.324Z,100343.00
